sensor_id;sensor_type;location;lat;lon;timestamp;temperature;humidity
12634;DHT22;6382;48.614;8.880;2022-12-24T00:01:02;9.40;99.90
12634;DHT22;6382;48.614;8.880;2022-12-24T00:03:29;8.40;99.90
12634;DHT22;6382;48.614;8.880;2022-12-24T00:05:56;8.20;99.90
12634;DHT22;6382;48.614;8.880;2022-12-24T00:08:22;8.20;99.90
12634;DHT22;6382;48.614;8.880;2022-12-24T00:10:52;8.10;99.90
12634;DHT22;6382;48.614;8.880;2022-12-24T00:13:19;8.00;99.90
12634;DHT22;6382;48.614;8.880;2022-12-24T00:15:46;7.90;99.90
12634;DHT22;6382;48.614;8.880;2022-12-24T00:18:13;9.20;99.90
12634;DHT22;6382;48.614;8.880;2022-12-24T00:20:39;7.80;99.90
12634;DHT22;6382;48.614;8.880;2022-12-24T00:23:06;7.90;99.90
12634;DHT22;6382;48.614;8.880;2022-12-24T00:25:33;7.80;99.90
12634;DHT22;6382;48.614;8.880;2022-12-24T00:27:59;7.90;99.90
12634;DHT22;6382;48.614;8.880;2022-12-24T00:30:26;7.90;99.90
12634;DHT22;6382;48.614;8.880;2022-12-24T00:32:53;9.30;99.90
12634;DHT22;6382;48.614;8.880;2022-12-24T00:35:20;10.00;99.90
12634;DHT22;6382;48.614;8.880;2022-12-24T00:37:47;7.80;99.90
12634;DHT22;6382;48.614;8.880;2022-12-24T00:40:14;10.10;99.90
12634;DHT22;6382;48.614;8.880;2022-12-24T00:42:41;7.70;99.90
12634;DHT22;6382;48.614;8.880;2022-12-24T00:45:08;7.70;99.90
12634;DHT22;6382;48.614;8.880;2022-12-24T00:47:35;7.60;99.90
12634;DHT22;6382;48.614;8.880;2022-12-24T00:50:02;6.50;99.90
12634;DHT22;6382;48.614;8.880;2022-12-24T00:52:29;7.50;99.90
12634;DHT22;6382;48.614;8.880;2022-12-24T00:54:55;7.50;99.90
12634;DHT22;6382;48.614;8.880;2022-12-24T00:57:22;7.50;99.90
12634;DHT22;6382;48.614;8.880;2022-12-24T00:59:48;10.10;99.90
12634;DHT22;6382;48.614;8.880;2022-12-24T01:02:15;7.50;99.90
12634;DHT22;6382;48.614;8.880;2022-12-24T01:04:42;7.50;99.90
12634;DHT22;6382;48.614;8.880;2022-12-24T01:07:27;7.50;99.90
12634;DHT22;6382;48.614;8.880;2022-12-24T01:09:54;7.40;99.90
12634;DHT22;6382;48.614;8.880;2022-12-24T01:12:20;7.40;99.90
12634;DHT22;6382;48.614;8.880;2022-12-24T01:14:47;7.40;99.90
12634;DHT22;6382;48.614;8.880;2022-12-24T01:17:14;7.40;99.90
12634;DHT22;6382;48.614;8.880;2022-12-24T01:19:40;7.40;99.90
12634;DHT22;6382;48.614;8.880;2022-12-24T01:22:07;7.30;99.90
12634;DHT22;6382;48.614;8.880;2022-12-24T01:24:34;9.10;99.90
12634;DHT22;6382;48.614;8.880;2022-12-24T01:27:01;7.30;99.90
12634;DHT22;6382;48.614;8.880;2022-12-24T01:29:27;7.30;99.90
12634;DHT22;6382;48.614;8.880;2022-12-24T01:31:54;7.30;99.90
12634;DHT22;6382;48.614;8.880;2022-12-24T01:34:20;7.20;99.90
12634;DHT22;6382;48.614;8.880;2022-12-24T01:36:47;9.30;99.90
12634;DHT22;6382;48.614;8.880;2022-12-24T01:39:13;8.10;99.90
12634;DHT22;6382;48.614;8.880;2022-12-24T01:41:40;7.10;99.90
12634;DHT22;6382;48.614;8.880;2022-12-24T01:44:27;7.00;99.90
12634;DHT22;6382;48.614;8.880;2022-12-24T01:49:38;7.00;99.90
12634;DHT22;6382;48.614;8.880;2022-12-24T01:52:12;7.10;99.90
12634;DHT22;6382;48.614;8.880;2022-12-24T01:54:41;7.10;99.90
12634;DHT22;6382;48.614;8.880;2022-12-24T01:57:15;7.10;99.90
12634;DHT22;6382;48.614;8.880;2022-12-24T01:59:44;7.10;99.90
12634;DHT22;6382;48.614;8.880;2022-12-24T02:02:11;7.10;99.90
12634;DHT22;6382;48.614;8.880;2022-12-24T02:04:39;7.20;99.90
12634;DHT22;6382;48.614;8.880;2022-12-24T02:07:09;7.20;99.90
12634;DHT22;6382;48.614;8.880;2022-12-24T02:09:35;9.80;99.90
12634;DHT22;6382;48.614;8.880;2022-12-24T02:12:02;7.30;99.90
12634;DHT22;6382;48.614;8.880;2022-12-24T02:14:30;7.30;99.90
12634;DHT22;6382;48.614;8.880;2022-12-24T02:30:07;7.50;99.90
12634;DHT22;6382;48.614;8.880;2022-12-24T02:32:39;7.50;99.90
12634;DHT22;6382;48.614;8.880;2022-12-24T02:35:14;7.50;99.90
12634;DHT22;6382;48.614;8.880;2022-12-24T02:37:43;7.50;99.90
12634;DHT22;6382;48.614;8.880;2022-12-24T02:42:43;7.60;99.90
12634;DHT22;6382;48.614;8.880;2022-12-24T02:45:12;10.20;99.90
12634;DHT22;6382;48.614;8.880;2022-12-24T02:47:40;7.60;99.90
12634;DHT22;6382;48.614;8.880;2022-12-24T02:50:08;7.60;99.90
12634;DHT22;6382;48.614;8.880;2022-12-24T02:52:36;7.50;99.90
12634;DHT22;6382;48.614;8.880;2022-12-24T02:55:28;10.50;99.90
12634;DHT22;6382;48.614;8.880;2022-12-24T03:00:18;7.50;99.90
12634;DHT22;6382;48.614;8.880;2022-12-24T03:08:41;7.40;99.90
12634;DHT22;6382;48.614;8.880;2022-12-24T03:11:10;7.40;99.90
12634;DHT22;6382;48.614;8.880;2022-12-24T03:13:37;7.40;99.90
12634;DHT22;6382;48.614;8.880;2022-12-24T03:16:05;8.40;99.90
12634;DHT22;6382;48.614;8.880;2022-12-24T03:18:32;7.20;99.90
12634;DHT22;6382;48.614;8.880;2022-12-24T03:21:06;7.20;99.90
12634;DHT22;6382;48.614;8.880;2022-12-24T03:23:35;7.20;99.90
12634;DHT22;6382;48.614;8.880;2022-12-24T03:26:04;7.20;99.90
12634;DHT22;6382;48.614;8.880;2022-12-24T03:28:32;7.20;99.90
12634;DHT22;6382;48.614;8.880;2022-12-24T03:30:59;7.20;99.90
12634;DHT22;6382;48.614;8.880;2022-12-24T03:33:27;7.20;99.90
12634;DHT22;6382;48.614;8.880;2022-12-24T03:35:53;7.20;99.90
12634;DHT22;6382;48.614;8.880;2022-12-24T03:38:20;7.20;99.90
12634;DHT22;6382;48.614;8.880;2022-12-24T03:40:47;7.30;99.90
12634;DHT22;6382;48.614;8.880;2022-12-24T03:43:13;7.20;99.90
12634;DHT22;6382;48.614;8.880;2022-12-24T03:45:40;7.30;99.90
12634;DHT22;6382;48.614;8.880;2022-12-24T03:48:07;7.30;99.90
12634;DHT22;6382;48.614;8.880;2022-12-24T03:50:33;7.30;99.90
12634;DHT22;6382;48.614;8.880;2022-12-24T03:53:00;7.30;99.90
12634;DHT22;6382;48.614;8.880;2022-12-24T03:55:27;7.30;99.90
12634;DHT22;6382;48.614;8.880;2022-12-24T03:57:53;7.40;99.90
12634;DHT22;6382;48.614;8.880;2022-12-24T04:00:20;7.40;99.90
12634;DHT22;6382;48.614;8.880;2022-12-24T04:02:47;7.40;99.90
12634;DHT22;6382;48.614;8.880;2022-12-24T04:05:14;7.60;99.90
12634;DHT22;6382;48.614;8.880;2022-12-24T04:07:41;7.50;99.90
12634;DHT22;6382;48.614;8.880;2022-12-24T04:10:09;7.50;99.90
12634;DHT22;6382;48.614;8.880;2022-12-24T04:12:36;7.60;99.90
12634;DHT22;6382;48.614;8.880;2022-12-24T04:15:03;7.60;99.90
12634;DHT22;6382;48.614;8.880;2022-12-24T04:17:29;7.70;99.90
12634;DHT22;6382;48.614;8.880;2022-12-24T04:19:56;7.80;99.90
12634;DHT22;6382;48.614;8.880;2022-12-24T04:22:23;7.80;99.90
12634;DHT22;6382;48.614;8.880;2022-12-24T04:24:49;7.70;99.90
12634;DHT22;6382;48.614;8.880;2022-12-24T04:27:16;7.80;99.90
12634;DHT22;6382;48.614;8.880;2022-12-24T04:29:43;7.80;99.90
12634;DHT22;6382;48.614;8.880;2022-12-24T04:32:09;7.80;99.90
12634;DHT22;6382;48.614;8.880;2022-12-24T04:34:36;7.80;99.90
12634;DHT22;6382;48.614;8.880;2022-12-24T04:37:03;7.80;99.90
12634;DHT22;6382;48.614;8.880;2022-12-24T04:39:30;7.80;99.90
12634;DHT22;6382;48.614;8.880;2022-12-24T04:41:57;7.90;99.90
12634;DHT22;6382;48.614;8.880;2022-12-24T04:44:23;7.90;99.90
12634;DHT22;6382;48.614;8.880;2022-12-24T04:46:50;7.90;99.90
12634;DHT22;6382;48.614;8.880;2022-12-24T04:49:16;7.90;99.90
12634;DHT22;6382;48.614;8.880;2022-12-24T04:51:43;7.90;99.90
12634;DHT22;6382;48.614;8.880;2022-12-24T04:54:10;7.90;99.90
12634;DHT22;6382;48.614;8.880;2022-12-24T04:56:36;7.90;99.90
12634;DHT22;6382;48.614;8.880;2022-12-24T04:59:03;7.80;99.90
12634;DHT22;6382;48.614;8.880;2022-12-24T05:01:30;10.30;99.90
12634;DHT22;6382;48.614;8.880;2022-12-24T05:03:58;7.80;99.90
12634;DHT22;6382;48.614;8.880;2022-12-24T05:06:26;7.70;99.90
12634;DHT22;6382;48.614;8.880;2022-12-24T05:08:53;7.80;99.90
12634;DHT22;6382;48.614;8.880;2022-12-24T05:11:21;7.70;99.90
12634;DHT22;6382;48.614;8.880;2022-12-24T05:13:47;7.70;99.90
12634;DHT22;6382;48.614;8.880;2022-12-24T05:16:15;7.70;99.90
12634;DHT22;6382;48.614;8.880;2022-12-24T05:18:42;7.70;99.90
12634;DHT22;6382;48.614;8.880;2022-12-24T05:21:09;7.70;99.90
12634;DHT22;6382;48.614;8.880;2022-12-24T05:23:36;7.60;99.90
12634;DHT22;6382;48.614;8.880;2022-12-24T05:26:29;7.70;99.90
12634;DHT22;6382;48.614;8.880;2022-12-24T05:28:57;7.60;99.90
12634;DHT22;6382;48.614;8.880;2022-12-24T05:31:24;7.60;99.90
12634;DHT22;6382;48.614;8.880;2022-12-24T05:33:51;9.80;99.90
12634;DHT22;6382;48.614;8.880;2022-12-24T05:36:20;7.60;99.90
12634;DHT22;6382;48.614;8.880;2022-12-24T05:38:47;7.60;99.90
12634;DHT22;6382;48.614;8.880;2022-12-24T05:41:14;7.50;99.90
12634;DHT22;6382;48.614;8.880;2022-12-24T05:43:41;7.50;99.90
12634;DHT22;6382;48.614;8.880;2022-12-24T05:46:08;7.50;99.90
12634;DHT22;6382;48.614;8.880;2022-12-24T05:48:36;7.40;99.90
12634;DHT22;6382;48.614;8.880;2022-12-24T05:51:03;7.40;99.90
12634;DHT22;6382;48.614;8.880;2022-12-24T05:53:31;7.30;99.90
12634;DHT22;6382;48.614;8.880;2022-12-24T05:56:02;7.30;99.90
12634;DHT22;6382;48.614;8.880;2022-12-24T05:58:29;7.30;99.90
12634;DHT22;6382;48.614;8.880;2022-12-24T06:00:55;7.30;99.90
12634;DHT22;6382;48.614;8.880;2022-12-24T06:03:22;7.20;99.90
12634;DHT22;6382;48.614;8.880;2022-12-24T06:05:56;7.30;99.90
12634;DHT22;6382;48.614;8.880;2022-12-24T06:08:23;8.60;99.90
12634;DHT22;6382;48.614;8.880;2022-12-24T06:10:53;7.10;99.90
12634;DHT22;6382;48.614;8.880;2022-12-24T06:13:19;7.10;99.90
12634;DHT22;6382;48.614;8.880;2022-12-24T06:15:46;7.10;99.90
12634;DHT22;6382;48.614;8.880;2022-12-24T06:18:13;7.00;99.90
12634;DHT22;6382;48.614;8.880;2022-12-24T06:20:39;7.00;99.90
12634;DHT22;6382;48.614;8.880;2022-12-24T06:23:06;7.00;99.90
12634;DHT22;6382;48.614;8.880;2022-12-24T06:25:33;6.90;99.90
12634;DHT22;6382;48.614;8.880;2022-12-24T06:27:59;7.00;99.90
12634;DHT22;6382;48.614;8.880;2022-12-24T06:30:26;7.00;99.90
12634;DHT22;6382;48.614;8.880;2022-12-24T06:32:52;7.00;99.90
12634;DHT22;6382;48.614;8.880;2022-12-24T06:35:19;7.00;99.90
12634;DHT22;6382;48.614;8.880;2022-12-24T06:37:46;6.90;99.90
12634;DHT22;6382;48.614;8.880;2022-12-24T06:40:12;7.00;99.90
12634;DHT22;6382;48.614;8.880;2022-12-24T06:42:39;7.00;99.90
12634;DHT22;6382;48.614;8.880;2022-12-24T06:45:06;7.00;99.90
12634;DHT22;6382;48.614;8.880;2022-12-24T06:47:34;6.90;99.90
12634;DHT22;6382;48.614;8.880;2022-12-24T06:50:00;7.00;99.90
12634;DHT22;6382;48.614;8.880;2022-12-24T06:52:27;6.90;99.90
12634;DHT22;6382;48.614;8.880;2022-12-24T06:54:54;7.00;99.90
12634;DHT22;6382;48.614;8.880;2022-12-24T06:57:20;10.40;99.90
12634;DHT22;6382;48.614;8.880;2022-12-24T06:59:47;7.10;99.90
12634;DHT22;6382;48.614;8.880;2022-12-24T07:02:14;7.10;99.90
12634;DHT22;6382;48.614;8.880;2022-12-24T07:04:41;7.00;99.90
12634;DHT22;6382;48.614;8.880;2022-12-24T07:07:07;6.90;99.90
12634;DHT22;6382;48.614;8.880;2022-12-24T07:09:34;6.90;99.90
12634;DHT22;6382;48.614;8.880;2022-12-24T07:12:01;6.90;99.90
12634;DHT22;6382;48.614;8.880;2022-12-24T07:14:27;6.80;99.90
12634;DHT22;6382;48.614;8.880;2022-12-24T07:16:54;6.70;99.90
12634;DHT22;6382;48.614;8.880;2022-12-24T07:19:24;6.60;99.90
12634;DHT22;6382;48.614;8.880;2022-12-24T07:21:51;6.50;99.90
12634;DHT22;6382;48.614;8.880;2022-12-24T07:24:18;6.50;99.90
12634;DHT22;6382;48.614;8.880;2022-12-24T07:26:45;6.60;99.90
12634;DHT22;6382;48.614;8.880;2022-12-24T07:29:12;6.60;99.90
12634;DHT22;6382;48.614;8.880;2022-12-24T07:31:38;6.60;99.90
12634;DHT22;6382;48.614;8.880;2022-12-24T07:34:05;8.40;99.90
12634;DHT22;6382;48.614;8.880;2022-12-24T07:36:32;6.70;99.90
12634;DHT22;6382;48.614;8.880;2022-12-24T07:38:58;6.70;99.90
12634;DHT22;6382;48.614;8.880;2022-12-24T07:41:25;6.60;99.90
12634;DHT22;6382;48.614;8.880;2022-12-24T07:43:52;6.60;99.90
12634;DHT22;6382;48.614;8.880;2022-12-24T07:46:18;6.50;99.90
12634;DHT22;6382;48.614;8.880;2022-12-24T07:48:45;6.40;99.90
12634;DHT22;6382;48.614;8.880;2022-12-24T07:51:12;6.40;99.90
12634;DHT22;6382;48.614;8.880;2022-12-24T07:53:38;6.30;99.90
12634;DHT22;6382;48.614;8.880;2022-12-24T07:56:05;6.20;99.90
12634;DHT22;6382;48.614;8.880;2022-12-24T07:58:38;6.20;99.90
12634;DHT22;6382;48.614;8.880;2022-12-24T08:01:04;6.30;99.90
12634;DHT22;6382;48.614;8.880;2022-12-24T08:03:31;6.30;99.90
12634;DHT22;6382;48.614;8.880;2022-12-24T08:05:58;6.30;99.90
12634;DHT22;6382;48.614;8.880;2022-12-24T08:08:25;6.40;99.90
12634;DHT22;6382;48.614;8.880;2022-12-24T08:10:52;6.40;99.90
12634;DHT22;6382;48.614;8.880;2022-12-24T08:13:18;6.40;99.90
12634;DHT22;6382;48.614;8.880;2022-12-24T08:15:45;6.50;99.90
12634;DHT22;6382;48.614;8.880;2022-12-24T08:18:12;6.50;99.90
12634;DHT22;6382;48.614;8.880;2022-12-24T08:20:39;6.50;99.90
12634;DHT22;6382;48.614;8.880;2022-12-24T08:23:06;6.50;99.90
12634;DHT22;6382;48.614;8.880;2022-12-24T08:25:33;6.60;99.90
12634;DHT22;6382;48.614;8.880;2022-12-24T08:28:00;6.60;99.90
12634;DHT22;6382;48.614;8.880;2022-12-24T08:30:27;6.80;99.90
12634;DHT22;6382;48.614;8.880;2022-12-24T08:32:53;6.90;99.90
12634;DHT22;6382;48.614;8.880;2022-12-24T08:35:20;7.00;99.90
12634;DHT22;6382;48.614;8.880;2022-12-24T08:37:47;7.00;99.90
12634;DHT22;6382;48.614;8.880;2022-12-24T08:40:13;7.20;99.90
12634;DHT22;6382;48.614;8.880;2022-12-24T08:42:40;7.20;99.90
12634;DHT22;6382;48.614;8.880;2022-12-24T08:45:07;7.20;99.90
12634;DHT22;6382;48.614;8.880;2022-12-24T08:47:35;7.30;99.90
12634;DHT22;6382;48.614;8.880;2022-12-24T08:50:02;7.30;99.90
12634;DHT22;6382;48.614;8.880;2022-12-24T08:52:29;4.20;99.90
12634;DHT22;6382;48.614;8.880;2022-12-24T08:54:56;7.50;99.90
12634;DHT22;6382;48.614;8.880;2022-12-24T08:57:22;7.40;99.90
12634;DHT22;6382;48.614;8.880;2022-12-24T08:59:49;7.40;99.90
12634;DHT22;6382;48.614;8.880;2022-12-24T09:02:16;7.50;99.90
12634;DHT22;6382;48.614;8.880;2022-12-24T09:04:43;7.60;99.90
12634;DHT22;6382;48.614;8.880;2022-12-24T09:07:10;7.50;99.90
12634;DHT22;6382;48.614;8.880;2022-12-24T09:09:36;7.60;99.90
12634;DHT22;6382;48.614;8.880;2022-12-24T09:12:04;7.60;99.90
12634;DHT22;6382;48.614;8.880;2022-12-24T09:14:31;7.70;99.90
12634;DHT22;6382;48.614;8.880;2022-12-24T09:16:58;7.80;99.90
12634;DHT22;6382;48.614;8.880;2022-12-24T09:19:26;7.80;99.90
12634;DHT22;6382;48.614;8.880;2022-12-24T09:21:52;7.90;99.90
12634;DHT22;6382;48.614;8.880;2022-12-24T09:24:19;8.00;99.90
12634;DHT22;6382;48.614;8.880;2022-12-24T09:26:46;8.00;99.90
12634;DHT22;6382;48.614;8.880;2022-12-24T09:29:22;8.00;99.90
12634;DHT22;6382;48.614;8.880;2022-12-24T09:31:49;8.00;99.90
12634;DHT22;6382;48.614;8.880;2022-12-24T09:34:16;8.10;99.90
12634;DHT22;6382;48.614;8.880;2022-12-24T09:36:42;8.10;99.90
12634;DHT22;6382;48.614;8.880;2022-12-24T09:39:09;8.10;99.90
12634;DHT22;6382;48.614;8.880;2022-12-24T09:44:09;8.00;99.90
12634;DHT22;6382;48.614;8.880;2022-12-24T09:46:38;8.00;99.90
12634;DHT22;6382;48.614;8.880;2022-12-24T09:49:12;10.20;99.90
12634;DHT22;6382;48.614;8.880;2022-12-24T09:51:41;8.00;99.90
12634;DHT22;6382;48.614;8.880;2022-12-24T09:54:26;9.60;99.90
12634;DHT22;6382;48.614;8.880;2022-12-24T09:56:53;8.10;99.90
12634;DHT22;6382;48.614;8.880;2022-12-24T09:59:23;8.10;99.90
12634;DHT22;6382;48.614;8.880;2022-12-24T10:01:51;8.30;99.90
12634;DHT22;6382;48.614;8.880;2022-12-24T10:04:20;8.30;99.90
12634;DHT22;6382;48.614;8.880;2022-12-24T10:06:52;8.40;99.90
12634;DHT22;6382;48.614;8.880;2022-12-24T10:11:55;8.60;99.90
12634;DHT22;6382;48.614;8.880;2022-12-24T10:17:43;8.80;99.90
12634;DHT22;6382;48.614;8.880;2022-12-24T10:22:36;9.00;99.90
12634;DHT22;6382;48.614;8.880;2022-12-24T10:25:23;9.10;99.90
12634;DHT22;6382;48.614;8.880;2022-12-24T10:27:51;9.10;99.90
12634;DHT22;6382;48.614;8.880;2022-12-24T10:30:20;9.20;99.90
12634;DHT22;6382;48.614;8.880;2022-12-24T10:32:48;9.20;99.90
12634;DHT22;6382;48.614;8.880;2022-12-24T10:37:42;9.40;99.90
12634;DHT22;6382;48.614;8.880;2022-12-24T10:40:19;9.40;99.90
12634;DHT22;6382;48.614;8.880;2022-12-24T10:42:48;9.30;99.90
12634;DHT22;6382;48.614;8.880;2022-12-24T10:45:18;9.40;99.90
12634;DHT22;6382;48.614;8.880;2022-12-24T10:47:47;9.40;99.90
12634;DHT22;6382;48.614;8.880;2022-12-24T10:50:21;9.40;99.90
12634;DHT22;6382;48.614;8.880;2022-12-24T10:52:50;7.20;99.90
12634;DHT22;6382;48.614;8.880;2022-12-24T10:57:46;11.50;99.90
12634;DHT22;6382;48.614;8.880;2022-12-24T11:00:22;9.60;99.90
12634;DHT22;6382;48.614;8.880;2022-12-24T11:05:39;9.60;99.90
12634;DHT22;6382;48.614;8.880;2022-12-24T11:08:13;9.60;99.90
12634;DHT22;6382;48.614;8.880;2022-12-24T11:10:44;9.60;99.90
12634;DHT22;6382;48.614;8.880;2022-12-24T11:13:27;9.60;99.90
12634;DHT22;6382;48.614;8.880;2022-12-24T11:16:04;9.60;99.90
12634;DHT22;6382;48.614;8.880;2022-12-24T11:18:33;9.70;99.90
12634;DHT22;6382;48.614;8.880;2022-12-24T11:21:00;9.70;99.90
12634;DHT22;6382;48.614;8.880;2022-12-24T11:23:27;9.80;99.90
12634;DHT22;6382;48.614;8.880;2022-12-24T11:25:54;11.30;99.90
12634;DHT22;6382;48.614;8.880;2022-12-24T11:28:26;9.80;99.90
12634;DHT22;6382;48.614;8.880;2022-12-24T11:31:17;9.80;99.90
12634;DHT22;6382;48.614;8.880;2022-12-24T11:33:45;9.90;99.90
12634;DHT22;6382;48.614;8.880;2022-12-24T11:36:12;10.00;99.90
12634;DHT22;6382;48.614;8.880;2022-12-24T11:38:39;11.80;99.90
12634;DHT22;6382;48.614;8.880;2022-12-24T11:41:07;10.10;99.90
12634;DHT22;6382;48.614;8.880;2022-12-24T11:43:47;12.30;99.90
12634;DHT22;6382;48.614;8.880;2022-12-24T11:46:17;10.10;99.90
12634;DHT22;6382;48.614;8.880;2022-12-24T11:48:44;10.20;99.90
12634;DHT22;6382;48.614;8.880;2022-12-24T11:51:24;10.30;99.90
12634;DHT22;6382;48.614;8.880;2022-12-24T11:53:57;10.30;99.90
12634;DHT22;6382;48.614;8.880;2022-12-24T11:56:27;12.80;99.90
12634;DHT22;6382;48.614;8.880;2022-12-24T11:58:58;12.10;99.90
12634;DHT22;6382;48.614;8.880;2022-12-24T12:01:28;10.50;99.90
12634;DHT22;6382;48.614;8.880;2022-12-24T12:04:04;12.50;99.90
12634;DHT22;6382;48.614;8.880;2022-12-24T12:09:00;10.70;99.90
12634;DHT22;6382;48.614;8.880;2022-12-24T12:11:28;12.20;99.90
12634;DHT22;6382;48.614;8.880;2022-12-24T12:13:56;10.80;99.90
12634;DHT22;6382;48.614;8.880;2022-12-24T12:18:55;11.00;99.90
12634;DHT22;6382;48.614;8.880;2022-12-24T12:21:24;12.50;99.90
12634;DHT22;6382;48.614;8.880;2022-12-24T12:23:56;11.10;99.90
12634;DHT22;6382;48.614;8.880;2022-12-24T12:26:25;11.10;99.90
12634;DHT22;6382;48.614;8.880;2022-12-24T12:28:53;12.30;99.90
12634;DHT22;6382;48.614;8.880;2022-12-24T12:31:33;11.30;99.90
12634;DHT22;6382;48.614;8.880;2022-12-24T12:39:42;11.50;99.90
12634;DHT22;6382;48.614;8.880;2022-12-24T12:42:24;11.50;99.90
12634;DHT22;6382;48.614;8.880;2022-12-24T12:47:36;11.50;99.90
12634;DHT22;6382;48.614;8.880;2022-12-24T12:50:10;11.40;99.90
12634;DHT22;6382;48.614;8.880;2022-12-24T12:55:46;11.30;99.90
12634;DHT22;6382;48.614;8.880;2022-12-24T13:00:42;11.10;99.90
12634;DHT22;6382;48.614;8.880;2022-12-24T13:14:00;11.00;99.90
12634;DHT22;6382;48.614;8.880;2022-12-24T13:19:00;10.90;99.90
12634;DHT22;6382;48.614;8.880;2022-12-24T13:21:29;10.80;99.90
12634;DHT22;6382;48.614;8.880;2022-12-24T13:26:41;10.60;99.90
12634;DHT22;6382;48.614;8.880;2022-12-24T13:32:01;10.40;99.90
12634;DHT22;6382;48.614;8.880;2022-12-24T13:34:42;10.40;99.90
12634;DHT22;6382;48.614;8.880;2022-12-24T13:50:23;10.10;99.90
12634;DHT22;6382;48.614;8.880;2022-12-24T13:52:53;11.00;99.90
12634;DHT22;6382;48.614;8.880;2022-12-24T13:55:20;10.20;99.90
12634;DHT22;6382;48.614;8.880;2022-12-24T13:58:03;10.10;99.90
12634;DHT22;6382;48.614;8.880;2022-12-24T14:00:31;10.10;99.90
12634;DHT22;6382;48.614;8.880;2022-12-24T14:05:38;10.10;99.90
12634;DHT22;6382;48.614;8.880;2022-12-24T14:08:32;10.00;99.90
12634;DHT22;6382;48.614;8.880;2022-12-24T14:11:16;10.00;99.90
12634;DHT22;6382;48.614;8.880;2022-12-24T14:18:41;10.00;99.90
12634;DHT22;6382;48.614;8.880;2022-12-24T14:21:20;10.00;99.90
12634;DHT22;6382;48.614;8.880;2022-12-24T14:23:59;10.00;99.90
12634;DHT22;6382;48.614;8.880;2022-12-24T14:26:27;10.00;99.90
12634;DHT22;6382;48.614;8.880;2022-12-24T14:28:58;10.00;99.90
12634;DHT22;6382;48.614;8.880;2022-12-24T14:31:26;10.00;99.90
12634;DHT22;6382;48.614;8.880;2022-12-24T14:34:04;10.00;99.90
12634;DHT22;6382;48.614;8.880;2022-12-24T14:36:30;10.00;99.90
12634;DHT22;6382;48.614;8.880;2022-12-24T14:38:57;10.00;99.90
12634;DHT22;6382;48.614;8.880;2022-12-24T14:41:34;10.00;99.90
12634;DHT22;6382;48.614;8.880;2022-12-24T14:49:26;9.90;99.90
12634;DHT22;6382;48.614;8.880;2022-12-24T14:52:12;9.80;99.90
12634;DHT22;6382;48.614;8.880;2022-12-24T14:55:25;9.80;99.90
12634;DHT22;6382;48.614;8.880;2022-12-24T14:57:48;9.70;99.90
12634;DHT22;6382;48.614;8.880;2022-12-24T15:00:18;10.10;99.90
12634;DHT22;6382;48.614;8.880;2022-12-24T15:02:46;9.60;99.90
12634;DHT22;6382;48.614;8.880;2022-12-24T15:05:18;9.50;99.90
12634;DHT22;6382;48.614;8.880;2022-12-24T15:08:07;9.50;99.90
12634;DHT22;6382;48.614;8.880;2022-12-24T15:10:33;9.50;99.90
12634;DHT22;6382;48.614;8.880;2022-12-24T15:13:01;9.40;99.90
12634;DHT22;6382;48.614;8.880;2022-12-24T15:15:28;9.40;99.90
12634;DHT22;6382;48.614;8.880;2022-12-24T15:17:55;9.40;99.90
12634;DHT22;6382;48.614;8.880;2022-12-24T15:20:23;12.00;99.90
12634;DHT22;6382;48.614;8.880;2022-12-24T15:22:51;9.20;99.90
12634;DHT22;6382;48.614;8.880;2022-12-24T15:25:20;9.20;99.90
12634;DHT22;6382;48.614;8.880;2022-12-24T15:27:47;9.30;99.90
12634;DHT22;6382;48.614;8.880;2022-12-24T15:30:14;9.20;99.90
12634;DHT22;6382;48.614;8.880;2022-12-24T15:32:41;11.20;99.90
12634;DHT22;6382;48.614;8.880;2022-12-24T15:37:54;9.10;99.90
12634;DHT22;6382;48.614;8.880;2022-12-24T15:40:23;9.10;99.90
12634;DHT22;6382;48.614;8.880;2022-12-24T15:42:50;9.10;99.90
12634;DHT22;6382;48.614;8.880;2022-12-24T15:45:24;9.10;99.90
12634;DHT22;6382;48.614;8.880;2022-12-24T15:47:55;9.10;99.90
12634;DHT22;6382;48.614;8.880;2022-12-24T15:50:25;9.10;99.90
12634;DHT22;6382;48.614;8.880;2022-12-24T15:52:53;9.00;99.90
12634;DHT22;6382;48.614;8.880;2022-12-24T15:55:41;9.10;99.90
12634;DHT22;6382;48.614;8.880;2022-12-24T15:58:22;9.00;99.90
12634;DHT22;6382;48.614;8.880;2022-12-24T16:03:28;8.90;99.90
12634;DHT22;6382;48.614;8.880;2022-12-24T16:06:02;8.90;99.90
12634;DHT22;6382;48.614;8.880;2022-12-24T16:08:30;8.90;99.90
12634;DHT22;6382;48.614;8.880;2022-12-24T16:13:40;8.80;99.90
12634;DHT22;6382;48.614;8.880;2022-12-24T16:16:11;8.80;99.90
12634;DHT22;6382;48.614;8.880;2022-12-24T16:18:42;8.80;99.90
12634;DHT22;6382;48.614;8.880;2022-12-24T16:21:17;8.80;99.90
12634;DHT22;6382;48.614;8.880;2022-12-24T16:23:45;11.60;99.90
12634;DHT22;6382;48.614;8.880;2022-12-24T16:26:12;9.90;99.90
12634;DHT22;6382;48.614;8.880;2022-12-24T16:28:39;6.90;99.90
12634;DHT22;6382;48.614;8.880;2022-12-24T16:31:06;9.20;99.90
12634;DHT22;6382;48.614;8.880;2022-12-24T16:33:33;8.70;99.90
12634;DHT22;6382;48.614;8.880;2022-12-24T16:35:59;9.90;99.90
12634;DHT22;6382;48.614;8.880;2022-12-24T16:38:26;8.70;99.90
12634;DHT22;6382;48.614;8.880;2022-12-24T16:41:13;8.60;99.90
12634;DHT22;6382;48.614;8.880;2022-12-24T16:43:39;8.60;99.90
12634;DHT22;6382;48.614;8.880;2022-12-24T16:46:15;8.70;99.90
12634;DHT22;6382;48.614;8.880;2022-12-24T16:48:43;8.60;99.90
12634;DHT22;6382;48.614;8.880;2022-12-24T16:51:11;8.60;99.90
12634;DHT22;6382;48.614;8.880;2022-12-24T16:53:38;8.60;99.90
12634;DHT22;6382;48.614;8.880;2022-12-24T16:56:05;8.60;99.90
12634;DHT22;6382;48.614;8.880;2022-12-24T16:58:31;8.50;99.90
12634;DHT22;6382;48.614;8.880;2022-12-24T17:00:59;8.50;99.90
12634;DHT22;6382;48.614;8.880;2022-12-24T17:03:31;9.50;99.90
12634;DHT22;6382;48.614;8.880;2022-12-24T17:05:57;8.50;99.90
12634;DHT22;6382;48.614;8.880;2022-12-24T17:08:24;8.50;99.90
12634;DHT22;6382;48.614;8.880;2022-12-24T17:10:51;8.40;99.90
12634;DHT22;6382;48.614;8.880;2022-12-24T17:13:18;9.80;99.90
12634;DHT22;6382;48.614;8.880;2022-12-24T17:15:44;8.90;99.90
12634;DHT22;6382;48.614;8.880;2022-12-24T17:18:11;8.40;99.90
12634;DHT22;6382;48.614;8.880;2022-12-24T17:20:38;8.40;99.90
12634;DHT22;6382;48.614;8.880;2022-12-24T17:23:04;8.40;99.90
12634;DHT22;6382;48.614;8.880;2022-12-24T17:25:31;9.10;99.90
12634;DHT22;6382;48.614;8.880;2022-12-24T17:27:57;8.40;99.90
12634;DHT22;6382;48.614;8.880;2022-12-24T17:30:24;8.30;99.90
12634;DHT22;6382;48.614;8.880;2022-12-24T17:32:51;8.30;99.90
12634;DHT22;6382;48.614;8.880;2022-12-24T17:35:17;8.30;99.90
12634;DHT22;6382;48.614;8.880;2022-12-24T17:37:44;8.30;99.90
12634;DHT22;6382;48.614;8.880;2022-12-24T17:40:11;8.30;99.90
12634;DHT22;6382;48.614;8.880;2022-12-24T17:42:38;8.30;99.90
12634;DHT22;6382;48.614;8.880;2022-12-24T17:45:04;8.30;99.90
12634;DHT22;6382;48.614;8.880;2022-12-24T17:47:31;8.30;99.90
12634;DHT22;6382;48.614;8.880;2022-12-24T17:49:58;8.30;99.90
12634;DHT22;6382;48.614;8.880;2022-12-24T17:52:25;8.30;99.90
12634;DHT22;6382;48.614;8.880;2022-12-24T17:54:51;8.30;99.90
12634;DHT22;6382;48.614;8.880;2022-12-24T17:57:20;8.30;99.90
12634;DHT22;6382;48.614;8.880;2022-12-24T17:59:47;8.40;99.90
12634;DHT22;6382;48.614;8.880;2022-12-24T18:02:13;8.30;99.90
12634;DHT22;6382;48.614;8.880;2022-12-24T18:04:40;8.30;99.90
12634;DHT22;6382;48.614;8.880;2022-12-24T18:07:07;8.30;99.90